Etusivu
METAR-TAF:

METAR-TAF

Lentoasemat :

Norrköping, Ruotsi

Leveyspiiri: 58-35N, Pituuspiiri: 016-09E, korkeus merenpinnasta: 34 m

Tämänhetkinen sää

Tämä raportti tehtiin 16 minuuttia sitten, kello 06.20 UTC
Tuuli 4 kn lännestä, vaihdellen lännen/lounaan ja luoteen välillä
Lämpötila 13°C
Kosteus 88%
Ilmanpaine 1013 hPa
Näkyvyys 10 km tai enemmän
ei pilviä alle 1500 m:ssä eikä cumulonimbus-pilviä

METAR: ESSP 240620Z 28004KT 250V320 CAVOK 13/11 Q1013

Aika: 08:36 (06:36 UTC)

Sääennuste

Tämä raportti tehtiin 1 tunti ja 6 minuuttia sitten, kello 05.30 UTC
Ennuste voimassa 24. päivästä klo 06 UTC - 24. päivään klo 15 UTC
Tuuli 4 kn lännestä
Näkyvyys 10 km tai enemmän
ei pilviä alle 1500 m:ssä eikä cumulonimbus-pilviä

TAF: ESSP 240530Z 2406/2415 27004KT CAVOK

Säähavainnot ja -ennusteet yli 4000 lentoasemalta (METAR- ja TAF-raportit).

Käytössä olevat sääasemat on merkitty karttaan keltaisilla ja punaisilla pisteillä.

Aseta hiiri pisteen päälle nähdäksesi sääaseman nimen.

Klikkaa sitten nähdäksesi säähavainnot ja -ennusteet.

Kartan vaihtaminen: klikkaa mustalla rastilla varustettuja vihreitä pisteitä, niin voit zoomata sisään; viivalla varustettua vihreää pistettä, niin voit zoomata ulos tai vihreitä nuolia, niin pääset viereisille kartoille.


METAR-TAF: